<?xml version="1.0" encoding="UTF-8" standalone="no" ?>
<gpx xmlns="http://www.topografix.com/GPX/1/1" creator="MapSource 6.11.6" version="1.1" xmlns:xsi="http://www.w3.org/2001/XMLSchema-instance" xsi:schemaLocation="http://www.topografix.com/GPX/1/1 http://www.topografix.com/GPX/1/1/gpx.xsd">

  <metadata>
    <link href="http://www.garmin.com">
      <text>Garmin International</text>
    </link>
    <time>2008-08-21T15:50:40Z</time>
    <bounds maxlat="50.685261" maxlon="6.409787" minlat="50.662075" minlon="6.374537"/>
  </metadata>

  <trk>
    <name>Missepad</name>
    <extensions>
      <gpxx:TrackExtension xmlns:gpxx="http://www.garmin.com/xmlschemas/GpxExtensions/v3" xmlns:xsi="http://www.w3.org/2001/XMLSchema-instance" xsi:schemaLocation="http://www.garmin.com/xmlschemas/GpxExtensions/v3 http://www.garmin.com/xmlschemas/GpxExtensions/v3/GpxExtensionsv3.xsd">
        <gpxx:DisplayColor>White</gpxx:DisplayColor>
      </gpxx:TrackExtension>
    </extensions>
    <trkseg>
      <trkpt lat="50.685261" lon="6.374537">
        <ele>417.830200</ele>
        <time>2008-08-21T20:11:47Z</time>
      </trkpt>
      <trkpt lat="50.685160" lon="6.374579">
        <ele>417.349609</ele>
        <time>2008-08-21T20:11:56Z</time>
      </trkpt>
      <trkpt lat="50.685067" lon="6.374683">
        <ele>417.830200</ele>
        <time>2008-08-21T20:12:06Z</time>
      </trkpt>
      <trkpt lat="50.685006" lon="6.374929">
        <ele>418.310791</ele>
        <time>2008-08-21T20:12:20Z</time>
      </trkpt>
      <trkpt lat="50.684893" lon="6.374991">
        <ele>418.310791</ele>
        <time>2008-08-21T20:12:31Z</time>
      </trkpt>
      <trkpt lat="50.684582" lon="6.375197">
        <ele>419.752808</ele>
        <time>2008-08-21T20:13:00Z</time>
      </trkpt>
      <trkpt lat="50.684415" lon="6.375363">
        <ele>420.233398</ele>
        <time>2008-08-21T20:13:17Z</time>
      </trkpt>
      <trkpt lat="50.684355" lon="6.375567">
        <ele>420.714111</ele>
        <time>2008-08-21T20:13:30Z</time>
      </trkpt>
      <trkpt lat="50.683790" lon="6.375858">
        <ele>419.272217</ele>
        <time>2008-08-21T20:14:21Z</time>
      </trkpt>
      <trkpt lat="50.683714" lon="6.375926">
        <ele>419.272217</ele>
        <time>2008-08-21T20:14:29Z</time>
      </trkpt>
      <trkpt lat="50.683632" lon="6.375988">
        <ele>418.791504</ele>
        <time>2008-08-21T20:14:37Z</time>
      </trkpt>
      <trkpt lat="50.683538" lon="6.375919">
        <ele>418.791504</ele>
        <time>2008-08-21T20:14:46Z</time>
      </trkpt>
      <trkpt lat="50.683241" lon="6.376017">
        <ele>417.349609</ele>
        <time>2008-08-21T20:15:12Z</time>
      </trkpt>
      <trkpt lat="50.683174" lon="6.376174">
        <ele>417.349609</ele>
        <time>2008-08-21T20:15:23Z</time>
      </trkpt>
      <trkpt lat="50.683069" lon="6.376335">
        <ele>416.388184</ele>
        <time>2008-08-21T20:15:36Z</time>
      </trkpt>
      <trkpt lat="50.682927" lon="6.376502">
        <ele>416.388184</ele>
        <time>2008-08-21T20:15:51Z</time>
      </trkpt>
      <trkpt lat="50.682874" lon="6.376639">
        <ele>414.946167</ele>
        <time>2008-08-21T20:16:00Z</time>
      </trkpt>
      <trkpt lat="50.682811" lon="6.376752">
        <ele>415.426880</ele>
        <time>2008-08-21T20:16:08Z</time>
      </trkpt>
      <trkpt lat="50.682665" lon="6.376995">
        <ele>413.984863</ele>
        <time>2008-08-21T20:16:27Z</time>
      </trkpt>
      <trkpt lat="50.682598" lon="6.376992">
        <ele>413.504272</ele>
        <time>2008-08-21T20:16:32Z</time>
      </trkpt>
      <trkpt lat="50.682482" lon="6.376907">
        <ele>413.023560</ele>
        <time>2008-08-21T20:16:44Z</time>
      </trkpt>
      <trkpt lat="50.682380" lon="6.376800">
        <ele>413.023560</ele>
        <time>2008-08-21T20:16:54Z</time>
      </trkpt>
      <trkpt lat="50.682289" lon="6.376709">
        <ele>412.542847</ele>
        <time>2008-08-21T20:17:04Z</time>
      </trkpt>
      <trkpt lat="50.682196" lon="6.376629">
        <ele>412.062256</ele>
        <time>2008-08-21T20:17:13Z</time>
      </trkpt>
      <trkpt lat="50.682108" lon="6.376519">
        <ele>411.100952</ele>
        <time>2008-08-21T20:17:23Z</time>
      </trkpt>
      <trkpt lat="50.682011" lon="6.376443">
        <ele>410.620239</ele>
        <time>2008-08-21T20:17:32Z</time>
      </trkpt>
      <trkpt lat="50.681938" lon="6.376328">
        <ele>409.659058</ele>
        <time>2008-08-21T20:17:41Z</time>
      </trkpt>
      <trkpt lat="50.681780" lon="6.376140">
        <ele>407.736328</ele>
        <time>2008-08-21T20:17:58Z</time>
      </trkpt>
      <trkpt lat="50.681707" lon="6.376182">
        <ele>406.774902</ele>
        <time>2008-08-21T20:18:05Z</time>
      </trkpt>
      <trkpt lat="50.681569" lon="6.376275">
        <ele>406.294312</ele>
        <time>2008-08-21T20:18:18Z</time>
      </trkpt>
      <trkpt lat="50.681435" lon="6.376376">
        <ele>405.813721</ele>
        <time>2008-08-21T20:18:31Z</time>
      </trkpt>
      <trkpt lat="50.681335" lon="6.376485">
        <ele>405.813721</ele>
        <time>2008-08-21T20:18:41Z</time>
      </trkpt>
      <trkpt lat="50.681235" lon="6.376535">
        <ele>405.813721</ele>
        <time>2008-08-21T20:18:51Z</time>
      </trkpt>
      <trkpt lat="50.681179" lon="6.376594">
        <ele>405.813721</ele>
        <time>2008-08-21T20:18:56Z</time>
      </trkpt>
      <trkpt lat="50.681090" lon="6.376649">
        <ele>406.294312</ele>
        <time>2008-08-21T20:19:05Z</time>
      </trkpt>
      <trkpt lat="50.680967" lon="6.376710">
        <ele>406.294312</ele>
        <time>2008-08-21T20:19:16Z</time>
      </trkpt>
      <trkpt lat="50.680820" lon="6.376838">
        <ele>406.294312</ele>
        <time>2008-08-21T20:19:31Z</time>
      </trkpt>
      <trkpt lat="50.680707" lon="6.376894">
        <ele>406.294312</ele>
        <time>2008-08-21T20:19:41Z</time>
      </trkpt>
      <trkpt lat="50.680653" lon="6.376945">
        <ele>406.294312</ele>
        <time>2008-08-21T20:19:46Z</time>
      </trkpt>
      <trkpt lat="50.680552" lon="6.376989">
        <ele>407.255615</ele>
        <time>2008-08-21T20:19:56Z</time>
      </trkpt>
      <trkpt lat="50.680356" lon="6.377154">
        <ele>405.333008</ele>
        <time>2008-08-21T20:20:15Z</time>
      </trkpt>
      <trkpt lat="50.680241" lon="6.377257">
        <ele>405.813721</ele>
        <time>2008-08-21T20:20:26Z</time>
      </trkpt>
      <trkpt lat="50.680198" lon="6.377397">
        <ele>405.333008</ele>
        <time>2008-08-21T20:20:35Z</time>
      </trkpt>
      <trkpt lat="50.680176" lon="6.377558">
        <ele>405.333008</ele>
        <time>2008-08-21T20:20:44Z</time>
      </trkpt>
      <trkpt lat="50.680128" lon="6.377730">
        <ele>405.333008</ele>
        <time>2008-08-21T20:20:54Z</time>
      </trkpt>
      <trkpt lat="50.680098" lon="6.377855">
        <ele>405.333008</ele>
        <time>2008-08-21T20:21:02Z</time>
      </trkpt>
      <trkpt lat="50.680064" lon="6.378006">
        <ele>405.333008</ele>
        <time>2008-08-21T20:21:11Z</time>
      </trkpt>
      <trkpt lat="50.680056" lon="6.378150">
        <ele>404.852295</ele>
        <time>2008-08-21T20:21:19Z</time>
      </trkpt>
      <trkpt lat="50.680029" lon="6.378347">
        <ele>403.891113</ele>
        <time>2008-08-21T20:21:30Z</time>
      </trkpt>
      <trkpt lat="50.680011" lon="6.378513">
        <ele>402.929688</ele>
        <time>2008-08-21T20:21:39Z</time>
      </trkpt>
      <trkpt lat="50.679975" lon="6.378655">
        <ele>401.487793</ele>
        <time>2008-08-21T20:21:47Z</time>
      </trkpt>
      <trkpt lat="50.679954" lon="6.378817">
        <ele>400.526489</ele>
        <time>2008-08-21T20:21:57Z</time>
      </trkpt>
      <trkpt lat="50.679934" lon="6.378945">
        <ele>400.045898</ele>
        <time>2008-08-21T20:22:04Z</time>
      </trkpt>
      <trkpt lat="50.679922" lon="6.379107">
        <ele>399.084351</ele>
        <time>2008-08-21T20:22:13Z</time>
      </trkpt>
      <trkpt lat="50.679900" lon="6.379257">
        <ele>398.123169</ele>
        <time>2008-08-21T20:22:21Z</time>
      </trkpt>
      <trkpt lat="50.679869" lon="6.379393">
        <ele>397.161743</ele>
        <time>2008-08-21T20:22:29Z</time>
      </trkpt>
      <trkpt lat="50.679856" lon="6.379545">
        <ele>396.200562</ele>
        <time>2008-08-21T20:22:38Z</time>
      </trkpt>
      <trkpt lat="50.679844" lon="6.379694">
        <ele>395.239136</ele>
        <time>2008-08-21T20:22:46Z</time>
      </trkpt>
      <trkpt lat="50.679777" lon="6.379788">
        <ele>394.277954</ele>
        <time>2008-08-21T20:22:54Z</time>
      </trkpt>
      <trkpt lat="50.679717" lon="6.379857">
        <ele>393.797241</ele>
        <time>2008-08-21T20:23:00Z</time>
      </trkpt>
      <trkpt lat="50.679667" lon="6.379933">
        <ele>393.316528</ele>
        <time>2008-08-21T20:23:06Z</time>
      </trkpt>
      <trkpt lat="50.679619" lon="6.380004">
        <ele>392.355347</ele>
        <time>2008-08-21T20:23:12Z</time>
      </trkpt>
      <trkpt lat="50.679559" lon="6.380082">
        <ele>392.355347</ele>
        <time>2008-08-21T20:23:19Z</time>
      </trkpt>
      <trkpt lat="50.679495" lon="6.380169">
        <ele>391.393799</ele>
        <time>2008-08-21T20:23:26Z</time>
      </trkpt>
      <trkpt lat="50.679418" lon="6.380267">
        <ele>391.874512</ele>
        <time>2008-08-21T20:23:35Z</time>
      </trkpt>
      <trkpt lat="50.679349" lon="6.380352">
        <ele>391.874512</ele>
        <time>2008-08-21T20:23:42Z</time>
      </trkpt>
      <trkpt lat="50.679266" lon="6.380455">
        <ele>391.393799</ele>
        <time>2008-08-21T20:23:52Z</time>
      </trkpt>
      <trkpt lat="50.679163" lon="6.380556">
        <ele>390.913208</ele>
        <time>2008-08-21T20:24:02Z</time>
      </trkpt>
      <trkpt lat="50.679081" lon="6.380642">
        <ele>391.393799</ele>
        <time>2008-08-21T20:24:11Z</time>
      </trkpt>
      <trkpt lat="50.679027" lon="6.380715">
        <ele>391.393799</ele>
        <time>2008-08-21T20:24:17Z</time>
      </trkpt>
      <trkpt lat="50.678940" lon="6.380837">
        <ele>390.432617</ele>
        <time>2008-08-21T20:24:27Z</time>
      </trkpt>
      <trkpt lat="50.678871" lon="6.380933">
        <ele>390.432617</ele>
        <time>2008-08-21T20:24:35Z</time>
      </trkpt>
      <trkpt lat="50.678800" lon="6.381002">
        <ele>390.432617</ele>
        <time>2008-08-21T20:24:42Z</time>
      </trkpt>
      <trkpt lat="50.678728" lon="6.381108">
        <ele>389.951904</ele>
        <time>2008-08-21T20:24:51Z</time>
      </trkpt>
      <trkpt lat="50.678646" lon="6.381195">
        <ele>390.432617</ele>
        <time>2008-08-21T20:24:59Z</time>
      </trkpt>
      <trkpt lat="50.678596" lon="6.381314">
        <ele>390.432617</ele>
        <time>2008-08-21T20:25:07Z</time>
      </trkpt>
      <trkpt lat="50.678581" lon="6.381499">
        <ele>389.951904</ele>
        <time>2008-08-21T20:25:18Z</time>
      </trkpt>
      <trkpt lat="50.678576" lon="6.381669">
        <ele>388.510010</ele>
        <time>2008-08-21T20:25:27Z</time>
      </trkpt>
      <trkpt lat="50.678602" lon="6.381798">
        <ele>388.029297</ele>
        <time>2008-08-21T20:25:34Z</time>
      </trkpt>
      <trkpt lat="50.678616" lon="6.381927">
        <ele>387.067993</ele>
        <time>2008-08-21T20:25:42Z</time>
      </trkpt>
      <trkpt lat="50.678634" lon="6.382124">
        <ele>385.625977</ele>
        <time>2008-08-21T20:25:53Z</time>
      </trkpt>
      <trkpt lat="50.678628" lon="6.382311">
        <ele>385.145386</ele>
        <time>2008-08-21T20:26:03Z</time>
      </trkpt>
      <trkpt lat="50.678634" lon="6.382464">
        <ele>384.184082</ele>
        <time>2008-08-21T20:26:11Z</time>
      </trkpt>
      <trkpt lat="50.678669" lon="6.382633">
        <ele>383.222656</ele>
        <time>2008-08-21T20:26:21Z</time>
      </trkpt>
      <trkpt lat="50.678602" lon="6.382981">
        <ele>379.377441</ele>
        <time>2008-08-21T20:26:41Z</time>
      </trkpt>
      <trkpt lat="50.678537" lon="6.383219">
        <ele>376.493530</ele>
        <time>2008-08-21T20:26:56Z</time>
      </trkpt>
      <trkpt lat="50.678511" lon="6.383318">
        <ele>375.051514</ele>
        <time>2008-08-21T20:27:02Z</time>
      </trkpt>
      <trkpt lat="50.678447" lon="6.383682">
        <ele>370.725586</ele>
        <time>2008-08-21T20:27:22Z</time>
      </trkpt>
      <trkpt lat="50.678381" lon="6.383843">
        <ele>368.322266</ele>
        <time>2008-08-21T20:27:33Z</time>
      </trkpt>
      <trkpt lat="50.678368" lon="6.383935">
        <ele>365.918945</ele>
        <time>2008-08-21T20:27:38Z</time>
      </trkpt>
      <trkpt lat="50.678274" lon="6.384049">
        <ele>363.515747</ele>
        <time>2008-08-21T20:27:48Z</time>
      </trkpt>
      <trkpt lat="50.678227" lon="6.384121">
        <ele>360.631714</ele>
        <time>2008-08-21T20:27:54Z</time>
      </trkpt>
      <trkpt lat="50.678173" lon="6.384272">
        <ele>358.708984</ele>
        <time>2008-08-21T20:28:04Z</time>
      </trkpt>
      <trkpt lat="50.678066" lon="6.384450">
        <ele>356.305786</ele>
        <time>2008-08-21T20:28:17Z</time>
      </trkpt>
      <trkpt lat="50.677874" lon="6.384582">
        <ele>352.941162</ele>
        <time>2008-08-21T20:28:35Z</time>
      </trkpt>
      <trkpt lat="50.677722" lon="6.384826">
        <ele>349.095825</ele>
        <time>2008-08-21T20:28:54Z</time>
      </trkpt>
      <trkpt lat="50.677637" lon="6.384921">
        <ele>347.173218</ele>
        <time>2008-08-21T20:29:03Z</time>
      </trkpt>
      <trkpt lat="50.677551" lon="6.385011">
        <ele>345.731323</ele>
        <time>2008-08-21T20:29:12Z</time>
      </trkpt>
      <trkpt lat="50.677421" lon="6.385185">
        <ele>343.327881</ele>
        <time>2008-08-21T20:29:27Z</time>
      </trkpt>
      <trkpt lat="50.677328" lon="6.385363">
        <ele>340.924683</ele>
        <time>2008-08-21T20:29:40Z</time>
      </trkpt>
      <trkpt lat="50.677205" lon="6.385596">
        <ele>336.118164</ele>
        <time>2008-08-21T20:29:57Z</time>
      </trkpt>
      <trkpt lat="50.677098" lon="6.385747">
        <ele>334.195435</ele>
        <time>2008-08-21T20:30:09Z</time>
      </trkpt>
      <trkpt lat="50.677044" lon="6.385767">
        <ele>330.830933</ele>
        <time>2008-08-21T20:30:14Z</time>
      </trkpt>
      <trkpt lat="50.676919" lon="6.385787">
        <ele>326.985596</ele>
        <time>2008-08-21T20:30:25Z</time>
      </trkpt>
      <trkpt lat="50.676835" lon="6.385734">
        <ele>326.024170</ele>
        <time>2008-08-21T20:30:33Z</time>
      </trkpt>
      <trkpt lat="50.676751" lon="6.385688">
        <ele>325.062988</ele>
        <time>2008-08-21T20:30:40Z</time>
      </trkpt>
      <trkpt lat="50.676646" lon="6.385453">
        <ele>322.659668</ele>
        <time>2008-08-21T20:30:56Z</time>
      </trkpt>
      <trkpt lat="50.676585" lon="6.385321">
        <ele>319.775635</ele>
        <time>2008-08-21T20:31:05Z</time>
      </trkpt>
      <trkpt lat="50.676543" lon="6.385232">
        <ele>318.333618</ele>
        <time>2008-08-21T20:31:11Z</time>
      </trkpt>
      <trkpt lat="50.676457" lon="6.385266">
        <ele>316.411011</ele>
        <time>2008-08-21T20:31:19Z</time>
      </trkpt>
      <trkpt lat="50.676341" lon="6.385344">
        <ele>314.488403</ele>
        <time>2008-08-21T20:31:30Z</time>
      </trkpt>
      <trkpt lat="50.676224" lon="6.385485">
        <ele>311.604492</ele>
        <time>2008-08-21T20:31:43Z</time>
      </trkpt>
      <trkpt lat="50.676058" lon="6.385683">
        <ele>309.681885</ele>
        <time>2008-08-21T20:32:01Z</time>
      </trkpt>
      <trkpt lat="50.675983" lon="6.385752">
        <ele>307.278564</ele>
        <time>2008-08-21T20:32:09Z</time>
      </trkpt>
      <trkpt lat="50.675845" lon="6.385836">
        <ele>305.836670</ele>
        <time>2008-08-21T20:32:22Z</time>
      </trkpt>
      <trkpt lat="50.675754" lon="6.385962">
        <ele>304.394653</ele>
        <time>2008-08-21T20:32:32Z</time>
      </trkpt>
      <trkpt lat="50.675656" lon="6.386116">
        <ele>302.952515</ele>
        <time>2008-08-21T20:32:44Z</time>
      </trkpt>
      <trkpt lat="50.675563" lon="6.386124">
        <ele>301.510620</ele>
        <time>2008-08-21T20:32:52Z</time>
      </trkpt>
      <trkpt lat="50.675438" lon="6.386183">
        <ele>299.107300</ele>
        <time>2008-08-21T20:33:04Z</time>
      </trkpt>
      <trkpt lat="50.675270" lon="6.386026">
        <ele>297.184692</ele>
        <time>2008-08-21T20:33:21Z</time>
      </trkpt>
      <trkpt lat="50.675216" lon="6.386111">
        <ele>295.261963</ele>
        <time>2008-08-21T20:33:27Z</time>
      </trkpt>
      <trkpt lat="50.675105" lon="6.386265">
        <ele>293.339355</ele>
        <time>2008-08-21T20:33:40Z</time>
      </trkpt>
      <trkpt lat="50.674955" lon="6.386387">
        <ele>291.897461</ele>
        <time>2008-08-21T20:33:55Z</time>
      </trkpt>
      <trkpt lat="50.674916" lon="6.386457">
        <ele>290.455566</ele>
        <time>2008-08-21T20:34:00Z</time>
      </trkpt>
      <trkpt lat="50.674792" lon="6.386578">
        <ele>288.532959</ele>
        <time>2008-08-21T20:34:13Z</time>
      </trkpt>
      <trkpt lat="50.674710" lon="6.386628">
        <ele>288.052246</ele>
        <time>2008-08-21T20:34:20Z</time>
      </trkpt>
      <trkpt lat="50.674563" lon="6.386668">
        <ele>287.571411</ele>
        <time>2008-08-21T20:34:33Z</time>
      </trkpt>
      <trkpt lat="50.674478" lon="6.386670">
        <ele>286.610229</ele>
        <time>2008-08-21T20:34:41Z</time>
      </trkpt>
      <trkpt lat="50.674397" lon="6.386711">
        <ele>285.648804</ele>
        <time>2008-08-21T20:34:48Z</time>
      </trkpt>
      <trkpt lat="50.674317" lon="6.386846">
        <ele>284.206909</ele>
        <time>2008-08-21T20:34:58Z</time>
      </trkpt>
      <trkpt lat="50.673349" lon="6.387358">
        <ele>267.864502</ele>
        <time>2008-08-21T20:36:27Z</time>
      </trkpt>
      <trkpt lat="50.673252" lon="6.387430">
        <ele>267.383911</ele>
        <time>2008-08-21T20:36:36Z</time>
      </trkpt>
      <trkpt lat="50.673202" lon="6.387428">
        <ele>267.383911</ele>
        <time>2008-08-21T20:36:41Z</time>
      </trkpt>
      <trkpt lat="50.674408" lon="6.388340">
        <ele>278.919678</ele>
        <time>2008-08-21T20:38:37Z</time>
      </trkpt>
      <trkpt lat="50.674016" lon="6.388597">
        <ele>281.803589</ele>
        <time>2008-08-21T20:39:14Z</time>
      </trkpt>
      <trkpt lat="50.673858" lon="6.388645">
        <ele>281.803589</ele>
        <time>2008-08-21T20:39:28Z</time>
      </trkpt>
      <trkpt lat="50.673676" lon="6.388634">
        <ele>282.765015</ele>
        <time>2008-08-21T20:39:44Z</time>
      </trkpt>
      <trkpt lat="50.673558" lon="6.388637">
        <ele>283.245605</ele>
        <time>2008-08-21T20:39:54Z</time>
      </trkpt>
      <trkpt lat="50.673489" lon="6.388673">
        <ele>283.245605</ele>
        <time>2008-08-21T20:40:00Z</time>
      </trkpt>
      <trkpt lat="50.673420" lon="6.388686">
        <ele>284.206909</ele>
        <time>2008-08-21T20:40:07Z</time>
      </trkpt>
      <trkpt lat="50.672076" lon="6.389646">
        <ele>311.604492</ele>
        <time>2008-08-21T20:42:15Z</time>
      </trkpt>
      <trkpt lat="50.671964" lon="6.389673">
        <ele>313.046509</ele>
        <time>2008-08-21T20:42:25Z</time>
      </trkpt>
      <trkpt lat="50.671879" lon="6.389646">
        <ele>314.007813</ele>
        <time>2008-08-21T20:42:32Z</time>
      </trkpt>
      <trkpt lat="50.671765" lon="6.389689">
        <ele>314.969116</ele>
        <time>2008-08-21T20:42:43Z</time>
      </trkpt>
      <trkpt lat="50.671618" lon="6.389635">
        <ele>316.411011</ele>
        <time>2008-08-21T20:42:56Z</time>
      </trkpt>
      <trkpt lat="50.671508" lon="6.389642">
        <ele>317.372437</ele>
        <time>2008-08-21T20:43:05Z</time>
      </trkpt>
      <trkpt lat="50.671412" lon="6.389613">
        <ele>318.333618</ele>
        <time>2008-08-21T20:43:14Z</time>
      </trkpt>
      <trkpt lat="50.671344" lon="6.389636">
        <ele>319.775635</ele>
        <time>2008-08-21T20:43:20Z</time>
      </trkpt>
      <trkpt lat="50.671206" lon="6.389649">
        <ele>320.737061</ele>
        <time>2008-08-21T20:43:32Z</time>
      </trkpt>
      <trkpt lat="50.670553" lon="6.390367">
        <ele>334.676147</ele>
        <time>2008-08-21T20:44:41Z</time>
      </trkpt>
      <trkpt lat="50.669940" lon="6.391134">
        <ele>351.018433</ele>
        <time>2008-08-21T20:45:49Z</time>
      </trkpt>
      <trkpt lat="50.669998" lon="6.393172">
        <ele>384.184082</ele>
        <time>2008-08-21T20:47:42Z</time>
      </trkpt>
      <trkpt lat="50.669977" lon="6.393449">
        <ele>385.625977</ele>
        <time>2008-08-21T20:47:57Z</time>
      </trkpt>
      <trkpt lat="50.669969" lon="6.393613">
        <ele>387.548584</ele>
        <time>2008-08-21T20:48:06Z</time>
      </trkpt>
      <trkpt lat="50.669950" lon="6.393795">
        <ele>389.471191</ele>
        <time>2008-08-21T20:48:16Z</time>
      </trkpt>
      <trkpt lat="50.669933" lon="6.393937">
        <ele>390.913208</ele>
        <time>2008-08-21T20:48:24Z</time>
      </trkpt>
      <trkpt lat="50.669924" lon="6.393992">
        <ele>392.355347</ele>
        <time>2008-08-21T20:48:27Z</time>
      </trkpt>
      <trkpt lat="50.669934" lon="6.394090">
        <ele>394.277954</ele>
        <time>2008-08-21T20:48:33Z</time>
      </trkpt>
      <trkpt lat="50.669922" lon="6.394268">
        <ele>397.161743</ele>
        <time>2008-08-21T20:48:43Z</time>
      </trkpt>
      <trkpt lat="50.669930" lon="6.394512">
        <ele>399.565063</ele>
        <time>2008-08-21T20:48:56Z</time>
      </trkpt>
      <trkpt lat="50.669920" lon="6.394642">
        <ele>401.968506</ele>
        <time>2008-08-21T20:49:04Z</time>
      </trkpt>
      <trkpt lat="50.669803" lon="6.395050">
        <ele>406.294312</ele>
        <time>2008-08-21T20:49:28Z</time>
      </trkpt>
      <trkpt lat="50.669636" lon="6.395529">
        <ele>412.062256</ele>
        <time>2008-08-21T20:49:58Z</time>
      </trkpt>
      <trkpt lat="50.669483" lon="6.395609">
        <ele>413.023560</ele>
        <time>2008-08-21T20:50:12Z</time>
      </trkpt>
      <trkpt lat="50.669380" lon="6.395643">
        <ele>414.946167</ele>
        <time>2008-08-21T20:50:22Z</time>
      </trkpt>
      <trkpt lat="50.669295" lon="6.395714">
        <ele>416.388184</ele>
        <time>2008-08-21T20:50:30Z</time>
      </trkpt>
      <trkpt lat="50.669188" lon="6.395800">
        <ele>418.310791</ele>
        <time>2008-08-21T20:50:40Z</time>
      </trkpt>
      <trkpt lat="50.669088" lon="6.395922">
        <ele>419.752808</ele>
        <time>2008-08-21T20:50:51Z</time>
      </trkpt>
      <trkpt lat="50.669034" lon="6.396094">
        <ele>421.194824</ele>
        <time>2008-08-21T20:51:02Z</time>
      </trkpt>
      <trkpt lat="50.669008" lon="6.396290">
        <ele>422.636719</ele>
        <time>2008-08-21T20:51:13Z</time>
      </trkpt>
      <trkpt lat="50.668990" lon="6.396443">
        <ele>423.117432</ele>
        <time>2008-08-21T20:51:22Z</time>
      </trkpt>
      <trkpt lat="50.668905" lon="6.396817">
        <ele>426.482056</ele>
        <time>2008-08-21T20:51:44Z</time>
      </trkpt>
      <trkpt lat="50.668831" lon="6.396956">
        <ele>427.443359</ele>
        <time>2008-08-21T20:51:54Z</time>
      </trkpt>
      <trkpt lat="50.668747" lon="6.397074">
        <ele>428.404663</ele>
        <time>2008-08-21T20:52:03Z</time>
      </trkpt>
      <trkpt lat="50.668698" lon="6.397183">
        <ele>429.846558</ele>
        <time>2008-08-21T20:52:11Z</time>
      </trkpt>
      <trkpt lat="50.668629" lon="6.397341">
        <ele>430.327271</ele>
        <time>2008-08-21T20:52:21Z</time>
      </trkpt>
      <trkpt lat="50.668574" lon="6.397583">
        <ele>431.769165</ele>
        <time>2008-08-21T20:52:35Z</time>
      </trkpt>
      <trkpt lat="50.668560" lon="6.397741">
        <ele>432.250000</ele>
        <time>2008-08-21T20:52:44Z</time>
      </trkpt>
      <trkpt lat="50.668562" lon="6.397922">
        <ele>432.250000</ele>
        <time>2008-08-21T20:52:54Z</time>
      </trkpt>
      <trkpt lat="50.668632" lon="6.398126">
        <ele>431.769165</ele>
        <time>2008-08-21T20:53:07Z</time>
      </trkpt>
      <trkpt lat="50.668735" lon="6.398336">
        <ele>432.250000</ele>
        <time>2008-08-21T20:53:22Z</time>
      </trkpt>
      <trkpt lat="50.668716" lon="6.398501">
        <ele>431.769165</ele>
        <time>2008-08-21T20:53:31Z</time>
      </trkpt>
      <trkpt lat="50.668720" lon="6.398724">
        <ele>430.807983</ele>
        <time>2008-08-21T20:53:43Z</time>
      </trkpt>
      <trkpt lat="50.668752" lon="6.398881">
        <ele>429.846558</ele>
        <time>2008-08-21T20:53:52Z</time>
      </trkpt>
      <trkpt lat="50.668756" lon="6.399147">
        <ele>428.885376</ele>
        <time>2008-08-21T20:54:07Z</time>
      </trkpt>
      <trkpt lat="50.668783" lon="6.399385">
        <ele>427.923950</ele>
        <time>2008-08-21T20:54:20Z</time>
      </trkpt>
      <trkpt lat="50.668798" lon="6.399547">
        <ele>427.443359</ele>
        <time>2008-08-21T20:54:29Z</time>
      </trkpt>
      <trkpt lat="50.668783" lon="6.399701">
        <ele>426.962769</ele>
        <time>2008-08-21T20:54:38Z</time>
      </trkpt>
      <trkpt lat="50.668758" lon="6.399864">
        <ele>426.482056</ele>
        <time>2008-08-21T20:54:47Z</time>
      </trkpt>
      <trkpt lat="50.668747" lon="6.400032">
        <ele>425.520752</ele>
        <time>2008-08-21T20:54:57Z</time>
      </trkpt>
      <trkpt lat="50.668622" lon="6.400205">
        <ele>425.520752</ele>
        <time>2008-08-21T20:55:11Z</time>
      </trkpt>
      <trkpt lat="50.668501" lon="6.400167">
        <ele>426.001343</ele>
        <time>2008-08-21T20:55:22Z</time>
      </trkpt>
      <trkpt lat="50.668396" lon="6.400177">
        <ele>426.001343</ele>
        <time>2008-08-21T20:55:31Z</time>
      </trkpt>
      <trkpt lat="50.668249" lon="6.400120">
        <ele>426.001343</ele>
        <time>2008-08-21T20:55:44Z</time>
      </trkpt>
      <trkpt lat="50.668150" lon="6.400048">
        <ele>426.001343</ele>
        <time>2008-08-21T20:55:54Z</time>
      </trkpt>
      <trkpt lat="50.667990" lon="6.399985">
        <ele>426.482056</ele>
        <time>2008-08-21T20:56:08Z</time>
      </trkpt>
      <trkpt lat="50.667856" lon="6.399863">
        <ele>426.482056</ele>
        <time>2008-08-21T20:56:21Z</time>
      </trkpt>
      <trkpt lat="50.667756" lon="6.399791">
        <ele>426.001343</ele>
        <time>2008-08-21T20:56:31Z</time>
      </trkpt>
      <trkpt lat="50.667612" lon="6.399722">
        <ele>426.001343</ele>
        <time>2008-08-21T20:56:44Z</time>
      </trkpt>
      <trkpt lat="50.667497" lon="6.399649">
        <ele>426.001343</ele>
        <time>2008-08-21T20:56:55Z</time>
      </trkpt>
      <trkpt lat="50.667384" lon="6.399573">
        <ele>426.001343</ele>
        <time>2008-08-21T20:57:06Z</time>
      </trkpt>
      <trkpt lat="50.667041" lon="6.399247">
        <ele>426.482056</ele>
        <time>2008-08-21T20:57:40Z</time>
      </trkpt>
      <trkpt lat="50.666952" lon="6.399139">
        <ele>426.482056</ele>
        <time>2008-08-21T20:57:50Z</time>
      </trkpt>
      <trkpt lat="50.666867" lon="6.399008">
        <ele>426.962769</ele>
        <time>2008-08-21T20:58:00Z</time>
      </trkpt>
      <trkpt lat="50.666760" lon="6.398909">
        <ele>426.482056</ele>
        <time>2008-08-21T20:58:11Z</time>
      </trkpt>
      <trkpt lat="50.666642" lon="6.398788">
        <ele>427.443359</ele>
        <time>2008-08-21T20:58:24Z</time>
      </trkpt>
      <trkpt lat="50.666506" lon="6.398696">
        <ele>426.962769</ele>
        <time>2008-08-21T20:58:36Z</time>
      </trkpt>
      <trkpt lat="50.666400" lon="6.398599">
        <ele>427.443359</ele>
        <time>2008-08-21T20:58:47Z</time>
      </trkpt>
      <trkpt lat="50.666295" lon="6.398495">
        <ele>427.443359</ele>
        <time>2008-08-21T20:58:58Z</time>
      </trkpt>
      <trkpt lat="50.666194" lon="6.398404">
        <ele>427.923950</ele>
        <time>2008-08-21T20:59:08Z</time>
      </trkpt>
      <trkpt lat="50.666085" lon="6.398320">
        <ele>428.404663</ele>
        <time>2008-08-21T20:59:19Z</time>
      </trkpt>
      <trkpt lat="50.666010" lon="6.398247">
        <ele>427.923950</ele>
        <time>2008-08-21T20:59:26Z</time>
      </trkpt>
      <trkpt lat="50.665883" lon="6.398153">
        <ele>428.404663</ele>
        <time>2008-08-21T20:59:38Z</time>
      </trkpt>
      <trkpt lat="50.665806" lon="6.398038">
        <ele>429.365967</ele>
        <time>2008-08-21T20:59:48Z</time>
      </trkpt>
      <trkpt lat="50.665758" lon="6.397900">
        <ele>430.807983</ele>
        <time>2008-08-21T20:59:56Z</time>
      </trkpt>
      <trkpt lat="50.665585" lon="6.397543">
        <ele>431.288574</ele>
        <time>2008-08-21T21:00:21Z</time>
      </trkpt>
      <trkpt lat="50.665810" lon="6.397966">
        <ele>430.327271</ele>
        <time>2008-08-21T21:00:52Z</time>
      </trkpt>
      <trkpt lat="50.665680" lon="6.397971">
        <ele>430.327271</ele>
        <time>2008-08-21T21:01:03Z</time>
      </trkpt>
      <trkpt lat="50.665573" lon="6.397876">
        <ele>430.327271</ele>
        <time>2008-08-21T21:01:14Z</time>
      </trkpt>
      <trkpt lat="50.665441" lon="6.397771">
        <ele>431.288574</ele>
        <time>2008-08-21T21:01:26Z</time>
      </trkpt>
      <trkpt lat="50.665339" lon="6.397680">
        <ele>431.769165</ele>
        <time>2008-08-21T21:01:37Z</time>
      </trkpt>
      <trkpt lat="50.665259" lon="6.397612">
        <ele>432.730713</ele>
        <time>2008-08-21T21:01:45Z</time>
      </trkpt>
      <trkpt lat="50.665155" lon="6.397538">
        <ele>433.211304</ele>
        <time>2008-08-21T21:01:55Z</time>
      </trkpt>
      <trkpt lat="50.665068" lon="6.397469">
        <ele>434.172607</ele>
        <time>2008-08-21T21:02:03Z</time>
      </trkpt>
      <trkpt lat="50.664963" lon="6.397377">
        <ele>434.653320</ele>
        <time>2008-08-21T21:02:13Z</time>
      </trkpt>
      <trkpt lat="50.664839" lon="6.397248">
        <ele>435.133911</ele>
        <time>2008-08-21T21:02:26Z</time>
      </trkpt>
      <trkpt lat="50.664585" lon="6.397143">
        <ele>437.537109</ele>
        <time>2008-08-21T21:02:49Z</time>
      </trkpt>
      <trkpt lat="50.664403" lon="6.397123">
        <ele>438.498535</ele>
        <time>2008-08-21T21:03:05Z</time>
      </trkpt>
      <trkpt lat="50.664288" lon="6.397137">
        <ele>438.979126</ele>
        <time>2008-08-21T21:03:15Z</time>
      </trkpt>
      <trkpt lat="50.664194" lon="6.397201">
        <ele>439.459717</ele>
        <time>2008-08-21T21:03:24Z</time>
      </trkpt>
      <trkpt lat="50.664095" lon="6.397267">
        <ele>440.421265</ele>
        <time>2008-08-21T21:03:33Z</time>
      </trkpt>
      <trkpt lat="50.663985" lon="6.397341">
        <ele>440.901855</ele>
        <time>2008-08-21T21:03:44Z</time>
      </trkpt>
      <trkpt lat="50.663884" lon="6.397432">
        <ele>441.863159</ele>
        <time>2008-08-21T21:03:54Z</time>
      </trkpt>
      <trkpt lat="50.663788" lon="6.397495">
        <ele>442.343872</ele>
        <time>2008-08-21T21:04:03Z</time>
      </trkpt>
      <trkpt lat="50.663710" lon="6.397507">
        <ele>442.824463</ele>
        <time>2008-08-21T21:04:10Z</time>
      </trkpt>
      <trkpt lat="50.663639" lon="6.397583">
        <ele>443.305054</ele>
        <time>2008-08-21T21:04:17Z</time>
      </trkpt>
      <trkpt lat="50.663583" lon="6.397699">
        <ele>443.785767</ele>
        <time>2008-08-21T21:04:25Z</time>
      </trkpt>
      <trkpt lat="50.663647" lon="6.397939">
        <ele>443.785767</ele>
        <time>2008-08-21T21:04:40Z</time>
      </trkpt>
      <trkpt lat="50.663679" lon="6.397997">
        <ele>443.305054</ele>
        <time>2008-08-21T21:04:44Z</time>
      </trkpt>
      <trkpt lat="50.663602" lon="6.397945">
        <ele>444.266479</ele>
        <time>2008-08-21T21:04:51Z</time>
      </trkpt>
      <trkpt lat="50.663520" lon="6.397962">
        <ele>444.747070</ele>
        <time>2008-08-21T21:04:58Z</time>
      </trkpt>
      <trkpt lat="50.663440" lon="6.398064">
        <ele>445.227661</ele>
        <time>2008-08-21T21:05:07Z</time>
      </trkpt>
      <trkpt lat="50.663378" lon="6.398238">
        <ele>446.189087</ele>
        <time>2008-08-21T21:05:18Z</time>
      </trkpt>
      <trkpt lat="50.663348" lon="6.398394">
        <ele>447.150269</ele>
        <time>2008-08-21T21:05:27Z</time>
      </trkpt>
      <trkpt lat="50.663280" lon="6.398641">
        <ele>447.630981</ele>
        <time>2008-08-21T21:05:42Z</time>
      </trkpt>
      <trkpt lat="50.663222" lon="6.398803">
        <ele>448.111816</ele>
        <time>2008-08-21T21:05:52Z</time>
      </trkpt>
      <trkpt lat="50.663184" lon="6.398926">
        <ele>449.072998</ele>
        <time>2008-08-21T21:06:00Z</time>
      </trkpt>
      <trkpt lat="50.663140" lon="6.399109">
        <ele>449.553711</ele>
        <time>2008-08-21T21:06:11Z</time>
      </trkpt>
      <trkpt lat="50.663072" lon="6.399247">
        <ele>449.553711</ele>
        <time>2008-08-21T21:06:20Z</time>
      </trkpt>
      <trkpt lat="50.663028" lon="6.399378">
        <ele>449.553711</ele>
        <time>2008-08-21T21:06:29Z</time>
      </trkpt>
      <trkpt lat="50.662977" lon="6.399530">
        <ele>449.553711</ele>
        <time>2008-08-21T21:06:38Z</time>
      </trkpt>
      <trkpt lat="50.662940" lon="6.399675">
        <ele>450.034424</ele>
        <time>2008-08-21T21:06:47Z</time>
      </trkpt>
      <trkpt lat="50.662854" lon="6.399908">
        <ele>450.515015</ele>
        <time>2008-08-21T21:07:02Z</time>
      </trkpt>
      <trkpt lat="50.662777" lon="6.400060">
        <ele>450.515015</ele>
        <time>2008-08-21T21:07:12Z</time>
      </trkpt>
      <trkpt lat="50.662691" lon="6.400197">
        <ele>450.034424</ele>
        <time>2008-08-21T21:07:23Z</time>
      </trkpt>
      <trkpt lat="50.662620" lon="6.400347">
        <ele>450.515015</ele>
        <time>2008-08-21T21:07:33Z</time>
      </trkpt>
      <trkpt lat="50.662571" lon="6.400465">
        <ele>450.034424</ele>
        <time>2008-08-21T21:07:41Z</time>
      </trkpt>
      <trkpt lat="50.662507" lon="6.400600">
        <ele>450.034424</ele>
        <time>2008-08-21T21:07:50Z</time>
      </trkpt>
      <trkpt lat="50.662448" lon="6.400727">
        <ele>450.034424</ele>
        <time>2008-08-21T21:07:59Z</time>
      </trkpt>
      <trkpt lat="50.662398" lon="6.400841">
        <ele>449.553711</ele>
        <time>2008-08-21T21:08:07Z</time>
      </trkpt>
      <trkpt lat="50.662350" lon="6.400979">
        <ele>449.072998</ele>
        <time>2008-08-21T21:08:15Z</time>
      </trkpt>
      <trkpt lat="50.662295" lon="6.401112">
        <ele>449.072998</ele>
        <time>2008-08-21T21:08:24Z</time>
      </trkpt>
      <trkpt lat="50.662263" lon="6.401231">
        <ele>448.592407</ele>
        <time>2008-08-21T21:08:31Z</time>
      </trkpt>
      <trkpt lat="50.662264" lon="6.401334"/>
      <trkpt lat="50.662219" lon="6.401603"/>
      <trkpt lat="50.662156" lon="6.402042"/>
      <trkpt lat="50.662075" lon="6.402425"/>
      <trkpt lat="50.662318" lon="6.402595"/>
      <trkpt lat="50.662641" lon="6.402666"/>
      <trkpt lat="50.662875" lon="6.402794"/>
      <trkpt lat="50.662875" lon="6.402808"/>
      <trkpt lat="50.663207" lon="6.403006"/>
      <trkpt lat="50.663396" lon="6.403219"/>
      <trkpt lat="50.663620" lon="6.403403"/>
      <trkpt lat="50.663800" lon="6.403545"/>
      <trkpt lat="50.663701" lon="6.403743"/>
      <trkpt lat="50.663710" lon="6.404112"/>
      <trkpt lat="50.663773" lon="6.404976"/>
      <trkpt lat="50.663791" lon="6.405500"/>
      <trkpt lat="50.663728" lon="6.406110"/>
      <trkpt lat="50.663647" lon="6.406521"/>
      <trkpt lat="50.663441" lon="6.406917"/>
      <trkpt lat="50.663355" lon="6.407222"/>
      <trkpt lat="50.663382" lon="6.407718"/>
      <trkpt lat="50.663634" lon="6.408186"/>
      <trkpt lat="50.663993" lon="6.408682"/>
      <trkpt lat="50.664299" lon="6.409234"/>
      <trkpt lat="50.664532" lon="6.409787"/>
    </trkseg>
  </trk>

</gpx>
